Terminal Aerodrome Forecast
Issued by NWS Atlanta, GA

Home | Current Version | Previous Version | Text Only | Print | Product List | Glossary On
Versions: 1 2 3 4 5 6 7 8 9 10 11 12 13 14 15 16 17 18 19 20 21 22 23 24 25 26 27 28 29 30 31 32 33 34 35 36 37 38 39
000
FTUS42 KFFC 212332
TAFATL
TAF
KATL 212332Z 2200/2306 02006KT P6SM SKC
     FM220000 07006KT P6SM FEW250
     FM221300 09008KT P6SM FEW030 SCT250
     FM221800 09010KT P6SM BKN040
     FM230000 10008KT P6SM BKN030
     FM230500 10009KT P6SM OVC020=

USA.gov is the U.S. government's official web portal to all federal, state and local government web resources and services.